Buoy 21539

sailwx.info

Track history (hours):
 
Tides and Currents Weather Stations Pressure Air Temp Water Temp Dewpoint Dewpoint Depression Visibility Wind Speed Wind Dir Waves Ship Positions

Drifting buoy 21539

Last reported at 2014-Sep-19 03:10 UTC. Time now 2014-Sep-19 05:54 UTC.
Position N 50°56' E 171°51'.

Barometer 1017.4 mb
Water temperature 11.8 ° C

Date/timePositionNaut miles runAvg speedWind from/ knotsBaromVisibWave heightAir tempDewpointWater temp
2014-Sep-19 03:10N 50°56' E 171°51'1 0.3 1017.4 11.8
2014-Sep-19 01:10N 50°55' E 171°51'1 0.7 1018.8 11.9
2014-Sep-19 00:10N 50°55' E 171°50'1 1.1 1019.1 12.0
2014-Sep-18 23:10N 50°56' E 171°50'0 0.0 1018.8 11.6
2014-Sep-18 22:10N 50°56' E 171°50'0 0.0 1020.1 11.6
2014-Sep-18 21:10N 50°56' E 171°50'3 1.0 1020.2 11.5
2014-Sep-18 18:10N 50°53' E 171°52'0 0.0 1020.6 11.4
2014-Sep-18 16:10N 50°53' E 171°52'0 0.0 1020.6 11.5
2014-Sep-18 15:10N 50°53' E 171°52'4 0.9 1020.5 11.5
2014-Sep-18 11:10N 50°50' E 171°48'0 0.0 1021.7 11.6
2014-Sep-18 09:10N 50°50' E 171°48'1 1.3 1021.0 11.6
2014-Sep-18 08:10N 50°51' E 171°50'1 0.6 1020.6 11.6
2014-Sep-18 06:10N 50°50' E 171°48'0 0.2 1019.7 11.6
2014-Sep-18 04:10N 50°50' E 171°48'2 1.5 1018.9 11.6
2014-Sep-18 03:10N 50°51' E 171°50'0 0.0 1018.8 11.6
2014-Sep-18 02:10N 50°51' E 171°50'0 0.0 1018.6 11.6
2014-Sep-18 01:10N 50°51' E 171°50'3 1.4 1018.3 11.6
2014-Sep-17 23:10N 50°48' E 171°51'2 1.7 1017.9 11.4
2014-Sep-17 22:10N 50°47' E 171°49'0 0.0 1017.6 11.3
2014-Sep-17 20:10N 50°47' E 171°49'0 0.0 1016.7 11.3
2014-Sep-17 18:10N 50°47' E 171°49'1 0.6 1015.6 11.3
2014-Sep-17 17:10N 50°47' E 171°50'1 0.9 1015.3 11.3
2014-Sep-17 16:10N 50°46' E 171°51'3 2.6 1014.7 11.3
2014-Sep-17 15:10N 50°44' E 171°53'0 0.0 1014.5 11.3
2014-Sep-17 13:10N 50°44' E 171°53'0 0.0 1014.4 11.3
2014-Sep-17 10:10N 50°44' E 171°53'1 0.6 1014.6 11.3
2014-Sep-17 08:10N 50°44' E 171°54'2 0.9 1014.3 11.3
2014-Sep-17 06:10N 50°42' E 171°54'0 0.0 1013.5 11.4
2014-Sep-17 03:10N 50°42' E 171°54'5 2.7 1012.0 11.4
2014-Sep-17 01:10N 50°37' E 171°58'0 0.0 1011.8 11.3
2014-Sep-16 23:10N 50°37' E 171°58'2 0.3 1011.3 11.3
2014-Sep-16 17:10N 50°37' E 172°01'1 0.3 1008.4 11.2
2014-Sep-16 15:10N 50°36' E 172°01'0 0.0 1007.8 11.3
2014-Sep-16 13:10N 50°36' E 172°01'2 0.6 1008.3 11.3
2014-Sep-16 10:10N 50°35' E 172°03'1 1.0 1009.2 11.3
2014-Sep-16 09:10N 50°35' E 172°02'3 1.5 1009.1 11.3
2014-Sep-16 07:10N 50°34' E 172°06'2 0.6 1009.1 11.3
2014-Sep-16 03:10N 50°31' E 172°08'0 0.0 1009.4 11.4
2014-Sep-16 02:10N 50°31' E 172°08'5 5.4 1009.7 11.4
2014-Sep-16 01:10N 50°29' E 172°15'0 0.0 1010.0 11.3
2014-Sep-16 00:10N 50°29' E 172°15'0 0.0 1010.4 11.3
2014-Sep-15 23:10N 50°29' E 172°15'2 0.4 1010.3 11.2
2014-Sep-15 19:10N 50°29' E 172°18'0 0.0 1010.3 11.2
2014-Sep-15 18:10N 50°29' E 172°18'0 0.0 1010.0 11.2
2014-Sep-15 17:10N 50°29' E 172°18'1 1.0 1009.9 11.2
2014-Sep-15 16:10N 50°28' E 172°17'0 0.0 1009.8 11.2
2014-Sep-15 15:10N 50°28' E 172°17'0 0.0 1009.5 11.2
2014-Sep-15 14:10N 50°28' E 172°17'5 4.6 1009.5 11.2
2014-Sep-15 13:10N 50°25' E 172°23'0 0.0 1009.2 11.2
2014-Sep-15 10:10N 50°25' E 172°23'1 0.2 1008.4 11.2
2014-Sep-15 07:10N 50°25' E 172°23'3 3.4 1006.7 11.3
2014-Sep-15 06:10N 50°23' E 172°28'0 0.0 1006.0 11.3
2014-Sep-15 03:10N 50°23' E 172°28'2 1.9 1004.2 11.3
2014-Sep-15 02:10N 50°24' E 172°30'1 0.7 1003.4 11.3
2014-Sep-15 01:10N 50°24' E 172°32'0 0.0 1003.3 11.3
2014-Sep-15 00:10N 50°24' E 172°32'3 1.1 1003.4 11.3
2014-Sep-14 21:10N 50°23' E 172°36'0 0.0 1003.7 11.2
2014-Sep-14 20:10N 50°23' E 172°36'0 0.0 1004.5 11.2
2014-Sep-14 19:10N 50°23' E 172°36'1 1.4 1005.0 11.2
2014-Sep-14 18:10N 50°22' E 172°38'0 0.0 1005.4 11.2
2014-Sep-14 17:10N 50°22' E 172°38'3 2.7 1005.8 11.2
2014-Sep-14 16:10N 50°22' E 172°42'0 0.0 1006.6 11.2
2014-Sep-14 15:10N 50°22' E 172°42'3 1.6 1007.5 11.2
2014-Sep-14 13:10N 50°24' E 172°47'0 0.0 1009.5 11.3
2014-Sep-14 11:10N 50°24' E 172°47'1 0.6 1010.6 11.3
2014-Sep-14 09:10N 50°23' E 172°47'0 0.5 1011.3 11.3
2014-Sep-14 08:10N 50°22' E 172°48'3 2.8 1011.6 11.3
2014-Sep-14 07:10N 50°23' E 172°52'0 0.0 1012.2 11.5
2014-Sep-14 04:10N 50°23' E 172°52'1 1.1 1012.9 11.5
2014-Sep-14 03:10N 50°24' E 172°53'0 0.0 1013.3 11.3
2014-Sep-14 02:10N 50°24' E 172°53'3 2.9 1014.0 11.3
2014-Sep-14 01:10N 50°24' E 172°58'0 0.0 1014.4 11.2
2014-Sep-14 00:10N 50°24' E 172°58'4 0.7 1015.1 11.2
2014-Sep-13 19:10N 50°26' E 173°03'1 0.6 1015.8 11.1
2014-Sep-13 18:10N 50°26' E 173°04'0 0.0 1015.5 11.1
2014-Sep-13 17:10N 50°26' E 173°04'4 3.6 1015.2 11.1
2014-Sep-13 16:10N 50°28' E 173°08'0 0.0 1015.4 11.1
2014-Sep-13 15:10N 50°28' E 173°08'0 0.0 1015.8 11.1
2014-Sep-13 14:10N 50°28' E 173°08'8 0.7 1015.8 11.1
2014-Sep-13 03:10N 50°31' E 173°19'2 1.8 1012.8 11.2
2014-Sep-13 02:10N 50°33' E 173°21'0 0.0 1012.7 11.1
2014-Sep-13 01:10N 50°33' E 173°21'0 0.0 1012.8 11.1
2014-Sep-13 00:10N 50°33' E 173°21'5 2.3 1012.8 11.0
2014-Sep-12 22:10N 50°36' E 173°25'0 0.1 1012.3 11.0
2014-Sep-12 18:10N 50°37' E 173°25'0 0.0 1010.8 11.0
2014-Sep-12 17:10N 50°37' E 173°25'8 4.2 1010.6 11.0
2014-Sep-12 15:10N 50°44' E 173°33'0 0.0 1010.2 11.0
2014-Sep-12 14:10N 50°44' E 173°33'0 0.0 1009.9 11.0
2014-Sep-12 09:10N 50°44' E 173°33'0 0.0 1008.9 11.1
2014-Sep-12 08:10N 50°44' E 173°33'0 0.0 1008.2 11.2
2014-Sep-12 07:10N 50°44' E 173°33'3 1.6 1007.8 11.2
2014-Sep-12 05:10N 50°46' E 173°34'0 0.0 1006.9 11.2
2014-Sep-12 04:10N 50°46' E 173°34'0 0.0 1006.9 11.2
2014-Sep-12 03:10N 50°46' E 173°34'0 0.0 1006.6 11.2
2014-Sep-12 02:10N 50°46' E 173°34'1 0.6 1006.3 11.2
2014-Sep-12 00:10N 50°47' E 173°33'2 2.5 1005.6 11.2
2014-Sep-11 23:10N 50°49' E 173°35'2 0.3 1005.2 11.2
2014-Sep-11 16:10N 50°51' E 173°34'0 0.0 1001.5 11.2
2014-Sep-11 15:10N 50°51' E 173°34'2 2.3 1001.1 11.2
2014-Sep-11 14:10N 50°51' E 173°37'2 0.5 1000.7 11.2
2014-Sep-11 10:10N 50°52' E 173°35'0 0.0 999.6 11.2
2014-Sep-11 09:10N 50°52' E 173°35'2 1.9 999.6 11.3
2014-Sep-11 08:10N 50°54' E 173°36'4 0.7 999.6 11.3
2014-Sep-11 02:10N 50°59' E 173°35'0 0.0 999.9 11.3
2014-Sep-11 00:10N 50°59' E 173°35'1 0.2 1000.4 11.3
2014-Sep-10 19:10N 50°58' E 173°34'3 1.0 1001.1 11.2
2014-Sep-10 16:10N 51°01' E 173°32'0 0.0 1001.2 11.3
2014-Sep-10 15:10N 51°01' E 173°32'0 0.0 1001.3 11.3
2014-Sep-10 09:10N 51°01' E 173°32'0 0.0 1002.0 11.4
2014-Sep-10 08:10N 51°01' E 173°32'1 0.8 1001.9 11.4
2014-Sep-10 07:10N 51°02' E 173°32'3 1.0 1001.2 11.4
2014-Sep-10 04:10N 51°04' E 173°28'0 0.0 1000.1 11.5
2014-Sep-10 01:10N 51°03' E 173°28'1 0.9 1000.7 11.5
2014-Sep-10 00:10N 51°03' E 173°27'3 2.9 1001.2 11.4
2014-Sep-09 23:10N 51°05' E 173°25'0 0.0 1001.4 11.4
2014-Sep-09 22:10N 51°05' E 173°25'2 0.5 1001.7 11.3
2014-Sep-09 18:10N 51°06' E 173°22'0 0.2 1000.8 11.3
2014-Sep-09 16:10N 51°06' E 173°23'2 0.7 1001.1 11.3
2014-Sep-09 13:10N 51°06' E 173°20'1 0.2 1002.9 11.3
2014-Sep-09 10:10N 51°07' E 173°21'2 1.8 1003.8 11.4
2014-Sep-09 09:10N 51°07' E 173°18'1 0.7 1004.0 11.4
2014-Sep-09 08:10N 51°07' E 173°17'0 0.1 1003.7 11.4
2014-Sep-09 03:10N 51°07' E 173°16'   1003.2 11.4
Track history (hours):
 
Tides and Currents Weather Stations Pressure Air Temp Water Temp Dewpoint Dewpoint Depression Visibility Wind Speed Wind Dir Waves Ship Positions

Drifting buoy 21539

Last reported at 2014-Sep-19 03:10 UTC. Time now 2014-Sep-19 05:54 UTC.
Position N 50°56' E 171°51'.

Barometer 1017.4 mb
Water temperature 11.8 ° C

Date/timePositionNaut miles runAvg speedWind from/ knotsBaromVisibWave heightAir tempDewpointWater temp
2014-Sep-19 03:10N 50°56' E 171°51'1 0.3 1017.4 11.8
2014-Sep-19 01:10N 50°55' E 171°51'1 0.7 1018.8 11.9
2014-Sep-19 00:10N 50°55' E 171°50'1 1.1 1019.1 12.0
2014-Sep-18 23:10N 50°56' E 171°50'0 0.0 1018.8 11.6
2014-Sep-18 22:10N 50°56' E 171°50'0 0.0 1020.1 11.6
2014-Sep-18 21:10N 50°56' E 171°50'3 1.0 1020.2 11.5
2014-Sep-18 18:10N 50°53' E 171°52'0 0.0 1020.6 11.4
2014-Sep-18 16:10N 50°53' E 171°52'0 0.0 1020.6 11.5
2014-Sep-18 15:10N 50°53' E 171°52'4 0.9 1020.5 11.5
2014-Sep-18 11:10N 50°50' E 171°48'0 0.0 1021.7 11.6
2014-Sep-18 09:10N 50°50' E 171°48'1 1.3 1021.0 11.6
2014-Sep-18 08:10N 50°51' E 171°50'1 0.6 1020.6 11.6
2014-Sep-18 06:10N 50°50' E 171°48'0 0.2 1019.7 11.6
2014-Sep-18 04:10N 50°50' E 171°48'2 1.5 1018.9 11.6
2014-Sep-18 03:10N 50°51' E 171°50'0 0.0 1018.8 11.6
2014-Sep-18 02:10N 50°51' E 171°50'0 0.0 1018.6 11.6
2014-Sep-18 01:10N 50°51' E 171°50'3 1.4 1018.3 11.6
2014-Sep-17 23:10N 50°48' E 171°51'2 1.7 1017.9 11.4
2014-Sep-17 22:10N 50°47' E 171°49'0 0.0 1017.6 11.3
2014-Sep-17 20:10N 50°47' E 171°49'0 0.0 1016.7 11.3
2014-Sep-17 18:10N 50°47' E 171°49'1 0.6 1015.6 11.3
2014-Sep-17 17:10N 50°47' E 171°50'1 0.9 1015.3 11.3
2014-Sep-17 16:10N 50°46' E 171°51'3 2.6 1014.7 11.3
2014-Sep-17 15:10N 50°44' E 171°53'0 0.0 1014.5 11.3
2014-Sep-17 13:10N 50°44' E 171°53'0 0.0 1014.4 11.3
2014-Sep-17 10:10N 50°44' E 171°53'1 0.6 1014.6 11.3
2014-Sep-17 08:10N 50°44' E 171°54'2 0.9 1014.3 11.3
2014-Sep-17 06:10N 50°42' E 171°54'0 0.0 1013.5 11.4
2014-Sep-17 03:10N 50°42' E 171°54'5 2.7 1012.0 11.4
2014-Sep-17 01:10N 50°37' E 171°58'0 0.0 1011.8 11.3
2014-Sep-16 23:10N 50°37' E 171°58'2 0.3 1011.3 11.3
2014-Sep-16 17:10N 50°37' E 172°01'1 0.3 1008.4 11.2
2014-Sep-16 15:10N 50°36' E 172°01'0 0.0 1007.8 11.3
2014-Sep-16 13:10N 50°36' E 172°01'2 0.6 1008.3 11.3
2014-Sep-16 10:10N 50°35' E 172°03'1 1.0 1009.2 11.3
2014-Sep-16 09:10N 50°35' E 172°02'3 1.5 1009.1 11.3
2014-Sep-16 07:10N 50°34' E 172°06'2 0.6 1009.1 11.3
2014-Sep-16 03:10N 50°31' E 172°08'0 0.0 1009.4 11.4
2014-Sep-16 02:10N 50°31' E 172°08'5 5.4 1009.7 11.4
2014-Sep-16 01:10N 50°29' E 172°15'0 0.0 1010.0 11.3
2014-Sep-16 00:10N 50°29' E 172°15'0 0.0 1010.4 11.3
2014-Sep-15 23:10N 50°29' E 172°15'2 0.4 1010.3 11.2
2014-Sep-15 19:10N 50°29' E 172°18'0 0.0 1010.3 11.2
2014-Sep-15 18:10N 50°29' E 172°18'0 0.0 1010.0 11.2
2014-Sep-15 17:10N 50°29' E 172°18'1 1.0 1009.9 11.2
2014-Sep-15 16:10N 50°28' E 172°17'0 0.0 1009.8 11.2
2014-Sep-15 15:10N 50°28' E 172°17'0 0.0 1009.5 11.2
2014-Sep-15 14:10N 50°28' E 172°17'5 4.6 1009.5 11.2
2014-Sep-15 13:10N 50°25' E 172°23'0 0.0 1009.2 11.2
2014-Sep-15 10:10N 50°25' E 172°23'1 0.2 1008.4 11.2
2014-Sep-15 07:10N 50°25' E 172°23'3 3.4 1006.7 11.3
2014-Sep-15 06:10N 50°23' E 172°28'0 0.0 1006.0 11.3
2014-Sep-15 03:10N 50°23' E 172°28'2 1.9 1004.2 11.3
2014-Sep-15 02:10N 50°24' E 172°30'1 0.7 1003.4 11.3
2014-Sep-15 01:10N 50°24' E 172°32'0 0.0 1003.3 11.3
2014-Sep-15 00:10N 50°24' E 172°32'3 1.1 1003.4 11.3
2014-Sep-14 21:10N 50°23' E 172°36'0 0.0 1003.7 11.2
2014-Sep-14 20:10N 50°23' E 172°36'0 0.0 1004.5 11.2
2014-Sep-14 19:10N 50°23' E 172°36'1 1.4 1005.0 11.2
2014-Sep-14 18:10N 50°22' E 172°38'0 0.0 1005.4 11.2
2014-Sep-14 17:10N 50°22' E 172°38'3 2.7 1005.8 11.2
2014-Sep-14 16:10N 50°22' E 172°42'0 0.0 1006.6 11.2
2014-Sep-14 15:10N 50°22' E 172°42'3 1.6 1007.5 11.2
2014-Sep-14 13:10N 50°24' E 172°47'0 0.0 1009.5 11.3
2014-Sep-14 11:10N 50°24' E 172°47'1 0.6 1010.6 11.3
2014-Sep-14 09:10N 50°23' E 172°47'0 0.5 1011.3 11.3
2014-Sep-14 08:10N 50°22' E 172°48'3 2.8 1011.6 11.3
2014-Sep-14 07:10N 50°23' E 172°52'0 0.0 1012.2 11.5
2014-Sep-14 04:10N 50°23' E 172°52'1 1.1 1012.9 11.5
2014-Sep-14 03:10N 50°24' E 172°53'0 0.0 1013.3 11.3
2014-Sep-14 02:10N 50°24' E 172°53'3 2.9 1014.0 11.3
2014-Sep-14 01:10N 50°24' E 172°58'0 0.0 1014.4 11.2
2014-Sep-14 00:10N 50°24' E 172°58'4 0.7 1015.1 11.2
2014-Sep-13 19:10N 50°26' E 173°03'1 0.6 1015.8 11.1
2014-Sep-13 18:10N 50°26' E 173°04'0 0.0 1015.5 11.1
2014-Sep-13 17:10N 50°26' E 173°04'4 3.6 1015.2 11.1
2014-Sep-13 16:10N 50°28' E 173°08'0 0.0 1015.4 11.1
2014-Sep-13 15:10N 50°28' E 173°08'0 0.0 1015.8 11.1
2014-Sep-13 14:10N 50°28' E 173°08'8 0.7 1015.8 11.1
2014-Sep-13 03:10N 50°31' E 173°19'2 1.8 1012.8 11.2
2014-Sep-13 02:10N 50°33' E 173°21'0 0.0 1012.7 11.1
2014-Sep-13 01:10N 50°33' E 173°21'0 0.0 1012.8 11.1
2014-Sep-13 00:10N 50°33' E 173°21'5 2.3 1012.8 11.0
2014-Sep-12 22:10N 50°36' E 173°25'0 0.1 1012.3 11.0
2014-Sep-12 18:10N 50°37' E 173°25'0 0.0 1010.8 11.0
2014-Sep-12 17:10N 50°37' E 173°25'8 4.2 1010.6 11.0
2014-Sep-12 15:10N 50°44' E 173°33'0 0.0 1010.2 11.0
2014-Sep-12 14:10N 50°44' E 173°33'0 0.0 1009.9 11.0
2014-Sep-12 09:10N 50°44' E 173°33'0 0.0 1008.9 11.1
2014-Sep-12 08:10N 50°44' E 173°33'0 0.0 1008.2 11.2
2014-Sep-12 07:10N 50°44' E 173°33'3 1.6 1007.8 11.2
2014-Sep-12 05:10N 50°46' E 173°34'0 0.0 1006.9 11.2
2014-Sep-12 04:10N 50°46' E 173°34'0 0.0 1006.9 11.2
2014-Sep-12 03:10N 50°46' E 173°34'0 0.0 1006.6 11.2
2014-Sep-12 02:10N 50°46' E 173°34'1 0.6 1006.3 11.2
2014-Sep-12 00:10N 50°47' E 173°33'2 2.5 1005.6 11.2
2014-Sep-11 23:10N 50°49' E 173°35'2 0.3 1005.2 11.2
2014-Sep-11 16:10N 50°51' E 173°34'0 0.0 1001.5 11.2
2014-Sep-11 15:10N 50°51' E 173°34'2 2.3 1001.1 11.2
2014-Sep-11 14:10N 50°51' E 173°37'2 0.5 1000.7 11.2
2014-Sep-11 10:10N 50°52' E 173°35'0 0.0 999.6 11.2
2014-Sep-11 09:10N 50°52' E 173°35'2 1.9 999.6 11.3
2014-Sep-11 08:10N 50°54' E 173°36'4 0.7 999.6 11.3
2014-Sep-11 02:10N 50°59' E 173°35'0 0.0 999.9 11.3
2014-Sep-11 00:10N 50°59' E 173°35'1 0.2 1000.4 11.3
2014-Sep-10 19:10N 50°58' E 173°34'3 1.0 1001.1 11.2
2014-Sep-10 16:10N 51°01' E 173°32'0 0.0 1001.2 11.3
2014-Sep-10 15:10N 51°01' E 173°32'0 0.0 1001.3 11.3
2014-Sep-10 09:10N 51°01' E 173°32'0 0.0 1002.0 11.4
2014-Sep-10 08:10N 51°01' E 173°32'1 0.8 1001.9 11.4
2014-Sep-10 07:10N 51°02' E 173°32'3 1.0 1001.2 11.4
2014-Sep-10 04:10N 51°04' E 173°28'0 0.0 1000.1 11.5
2014-Sep-10 01:10N 51°03' E 173°28'1 0.9 1000.7 11.5
2014-Sep-10 00:10N 51°03' E 173°27'3 2.9 1001.2 11.4
2014-Sep-09 23:10N 51°05' E 173°25'0 0.0 1001.4 11.4
2014-Sep-09 22:10N 51°05' E 173°25'2 0.5 1001.7 11.3
2014-Sep-09 18:10N 51°06' E 173°22'0 0.2 1000.8 11.3
2014-Sep-09 16:10N 51°06' E 173°23'2 0.7 1001.1 11.3
2014-Sep-09 13:10N 51°06' E 173°20'1 0.2 1002.9 11.3
2014-Sep-09 10:10N 51°07' E 173°21'2 1.8 1003.8 11.4
2014-Sep-09 09:10N 51°07' E 173°18'1 0.7 1004.0 11.4
2014-Sep-09 08:10N 51°07' E 173°17'0 0.1 1003.7 11.4
2014-Sep-09 03:10N 51°07' E 173°16'   1003.2 11.4

Dump ship's entire track history